Terminal Aerodrome Forecast
Issued by NWS

Home | Current Version | Previous Version | Text Only | Print | Product List | Glossary On
Versions: 1 2 3 4 5 6 7 8 9 10 11 12 13 14 15 16 17 18 19 20 21
000
FTUS41 KPBZ 221831 AAA
TAFMGW
TAF AMD
KMGW 221831Z 2219/2318 09005KT P6SM OVC070
      TEMPO 2221/2224 -SHRA
     FM230400 10010KT P6SM -RA OVC050
     FM230700 09010G20KT 5SM -RA OVC040
     FM231200 08012G22KT 3SM -RA OVC015=

USA.gov is the U.S. government's official web portal to all federal, state and local government web resources and services.